createdAt,value
2019-04-07T00:01:09.107Z,51.98
2019-04-07T00:03:38.980Z,50.25
2019-04-07T00:06:08.204Z,53.90
2019-04-07T00:08:37.683Z,49.75
2019-04-07T00:11:07.017Z,52.03
2019-04-07T00:13:36.488Z,51.28
2019-04-07T00:16:05.685Z,50.30
2019-04-07T00:18:34.910Z,53.00
2019-04-07T00:21:04.091Z,52.20
2019-04-07T00:23:33.681Z,52.17
2019-04-07T00:26:02.886Z,52.67
2019-04-07T00:28:32.511Z,51.48
2019-04-07T00:31:02.393Z,52.57
2019-04-07T00:33:32.219Z,51.00
2019-04-07T00:36:01.438Z,49.97
2019-04-07T00:38:30.642Z,51.55
2019-04-07T00:41:00.168Z,53.00
2019-04-07T00:43:29.642Z,53.90
2019-04-07T00:45:58.878Z,50.52
2019-04-07T00:48:28.638Z,49.80
2019-04-07T00:50:57.948Z,51.77
2019-04-07T00:53:27.275Z,52.83
2019-04-07T00:55:56.480Z,51.77
2019-04-07T00:58:25.744Z,51.35
2019-04-07T01:00:55.184Z,51.53
2019-04-07T01:03:24.893Z,53.05
2019-04-07T01:05:54.478Z,50.83
2019-04-07T01:08:23.660Z,51.35
2019-04-07T01:10:53.312Z,52.23
2019-04-07T01:13:23.099Z,52.40
2019-04-07T01:15:52.318Z,50.63
2019-04-07T01:18:21.601Z,51.60
2019-04-07T01:20:50.849Z,50.23
2019-04-07T01:23:20.223Z,49.35
2019-04-07T01:25:50.160Z,51.30
2019-04-07T01:28:19.822Z,50.50
2019-04-07T01:30:49.150Z,50.83
2019-04-07T01:33:18.460Z,50.43
2019-04-07T01:35:49.266Z,52.55
2019-04-07T01:38:18.544Z,52.58
2019-04-07T01:40:58.340Z,50.40
2019-04-07T01:43:31.792Z,50.28
2019-04-07T01:46:17.633Z,51.83
2019-04-07T01:49:00.190Z,50.52
2019-04-07T01:51:48.835Z,48.73
2019-04-07T01:54:22.970Z,49.53
2019-04-07T01:56:56.916Z,50.65
2019-04-07T01:59:44.349Z,47.93
2019-04-07T02:02:21.278Z,50.88
2019-04-07T02:04:58.155Z,49.65
2019-04-07T02:07:43.872Z,50.83
2019-04-07T02:10:32.643Z,50.08
2019-04-07T02:13:15.330Z,49.60
2019-04-07T02:15:52.692Z,49.70
2019-04-07T02:18:26.329Z,49.98
2019-04-07T02:21:15.225Z,46.37
2019-04-07T02:23:46.184Z,49.27
2019-04-07T02:26:23.564Z,50.15
2019-04-07T02:29:03.866Z,46.92
2019-04-07T02:31:38.221Z,49.15
2019-04-07T02:34:11.953Z,48.55
2019-04-07T02:36:43.214Z,51.50
2019-04-07T02:39:14.161Z,49.13
2019-04-07T02:41:45.587Z,48.48
2019-04-07T02:44:20.380Z,50.00
2019-04-07T02:46:51.676Z,49.95
2019-04-07T02:49:22.617Z,49.13
2019-04-07T02:51:54.217Z,48.90
2019-04-07T02:54:43.304Z,49.98
2019-04-07T02:57:18.904Z,48.25
2019-04-07T02:59:55.878Z,49.85
2019-04-07T03:02:41.620Z,48.98
2019-04-07T03:05:29.534Z,49.67
2019-04-07T03:08:01.542Z,51.42
2019-04-07T03:10:47.662Z,49.55
2019-04-07T03:13:24.453Z,48.63
2019-04-07T03:15:55.376Z,49.10
2019-04-07T03:18:39.033Z,50.85
2019-04-07T03:21:13.191Z,49.40
2019-04-07T03:23:44.181Z,50.10
2019-04-07T03:26:18.403Z,49.35
2019-04-07T03:28:58.198Z,50.35
2019-04-07T03:31:46.824Z,48.50
2019-04-07T03:34:26.071Z,50.65
2019-04-07T03:37:24.326Z,47.33
2019-04-07T03:39:46.119Z,48.02
2019-04-07T03:42:20.017Z,49.00
2019-04-07T03:44:53.698Z,48.13
2019-04-07T03:47:25.792Z,49.27
2019-04-07T03:49:57.180Z,48.33
2019-04-07T03:52:34.078Z,49.98
2019-04-07T03:55:04.945Z,50.15
2019-04-07T03:57:41.575Z,47.70
2019-04-07T04:00:55.103Z,47.85
2019-04-07T04:03:29.941Z,47.20
2019-04-07T04:06:00.996Z,46.30
2019-04-07T04:08:35.023Z,47.40
2019-04-07T04:11:11.689Z,48.65
2019-04-07T04:13:58.235Z,50.40
2019-04-07T04:16:28.537Z,49.98
2019-04-07T04:18:58.749Z,47.70
2019-04-07T04:21:28.851Z,51.30
2019-04-07T04:23:59.036Z,46.65
2019-04-07T04:26:29.104Z,48.52
2019-04-07T04:28:58.414Z,49.03
2019-04-07T04:31:27.588Z,48.95
2019-04-07T04:33:57.926Z,47.35
2019-04-07T04:36:27.327Z,48.87
2019-04-07T04:38:56.626Z,48.70
2019-04-07T04:41:25.797Z,49.33
2019-04-07T04:43:54.985Z,49.73
2019-04-07T04:46:24.295Z,48.83
2019-04-07T04:48:55.250Z,48.20
2019-04-07T04:51:24.431Z,49.30
2019-04-07T04:53:53.800Z,49.85
2019-04-07T04:56:23.030Z,50.75
2019-04-07T04:58:53.170Z,49.60
2019-04-07T05:01:23.031Z,49.98
2019-04-07T05:03:52.547Z,46.53
2019-04-07T05:06:21.849Z,48.83
2019-04-07T05:08:51.241Z,49.38
2019-04-07T05:11:21.167Z,49.35
2019-04-07T05:13:50.467Z,47.70
2019-04-07T05:16:19.810Z,46.45
2019-04-07T05:18:49.174Z,47.90
2019-04-07T05:21:18.563Z,49.20
2019-04-07T05:23:48.058Z,48.58
2019-04-07T05:26:18.025Z,47.73
2019-04-07T05:28:47.227Z,47.38
2019-04-07T05:31:16.439Z,49.38
2019-04-07T05:33:46.439Z,48.30
2019-04-07T05:36:15.868Z,47.20
2019-04-07T05:38:45.511Z,46.83
2019-04-07T05:41:14.964Z,47.80
2019-04-07T05:43:44.255Z,47.17
2019-04-07T05:46:13.858Z,47.27
2019-04-07T05:48:43.625Z,46.00
2019-04-07T05:51:13.390Z,46.63
2019-04-07T05:53:46.333Z,47.27
2019-04-07T05:56:13.643Z,47.43
2019-04-07T05:58:43.807Z,46.70
2019-04-07T06:01:13.053Z,44.85
2019-04-07T06:03:43.661Z,46.85
2019-04-07T06:06:13.471Z,44.98
2019-04-07T06:08:42.843Z,45.43
2019-04-07T06:11:12.582Z,45.55
2019-04-07T06:13:43.783Z,46.83
2019-04-07T06:16:12.970Z,45.65
2019-04-07T06:18:42.251Z,47.62
2019-04-07T06:21:14.144Z,45.95
2019-04-07T06:23:43.205Z,45.48
2019-04-07T06:26:13.075Z,45.17
2019-04-07T06:28:42.354Z,44.18
2019-04-07T06:31:11.776Z,45.12
2019-04-07T06:33:41.490Z,44.67
2019-04-07T06:36:11.515Z,45.20
2019-04-07T06:38:43.609Z,46.00
2019-04-07T06:41:11.686Z,45.80
2019-04-07T06:43:41.220Z,44.13
2019-04-07T06:46:17.657Z,44.50
2019-04-07T06:48:55.106Z,46.05
2019-04-07T06:51:29.204Z,44.23
2019-04-07T06:54:01.189Z,43.28
2019-04-07T06:56:43.795Z,44.93
2019-04-07T06:59:20.524Z,44.20
2019-04-07T07:01:51.401Z,43.83
2019-04-07T07:04:25.283Z,44.27
2019-04-07T07:07:08.877Z,44.05
2019-04-07T07:09:42.865Z,42.30
2019-04-07T07:12:22.463Z,42.40
2019-04-07T07:14:51.766Z,42.48
2019-04-07T07:17:32.235Z,42.35
2019-04-07T07:20:09.215Z,43.15
2019-04-07T07:22:55.064Z,43.50
2019-04-07T07:25:24.285Z,43.87
2019-04-07T07:27:53.527Z,42.27
2019-04-07T07:30:22.745Z,42.40
2019-04-07T07:32:52.000Z,42.15
2019-04-07T07:35:21.170Z,43.35
2019-04-07T07:37:50.990Z,41.02
2019-04-07T07:40:21.067Z,41.33
2019-04-07T07:42:51.133Z,42.33
2019-04-07T07:45:20.465Z,42.53
2019-04-07T07:47:53.183Z,42.43
2019-04-07T07:50:20.654Z,43.02
2019-04-07T07:52:53.379Z,41.77
2019-04-07T07:55:20.982Z,43.50
2019-04-07T07:57:54.325Z,41.42
2019-04-07T08:00:21.202Z,42.00
2019-04-07T08:02:52.507Z,42.27
2019-04-07T08:05:21.526Z,42.17
2019-04-07T08:07:51.209Z,41.83
2019-04-07T08:10:21.296Z,41.23
2019-04-07T08:12:51.923Z,40.50
2019-04-07T08:15:25.503Z,43.10
2019-04-07T08:17:52.138Z,38.53
2019-04-07T08:20:22.034Z,40.00
2019-04-07T08:22:51.546Z,40.88
2019-04-07T08:25:24.437Z,40.92
2019-04-07T08:27:51.856Z,39.18
2019-04-07T08:30:21.658Z,39.13
2019-04-07T08:32:50.844Z,41.98
2019-04-07T08:35:20.254Z,38.53
2019-04-07T08:37:50.067Z,40.55
2019-04-07T08:40:19.925Z,40.17
2019-04-07T08:42:50.187Z,38.55
2019-04-07T08:45:21.125Z,38.15
2019-04-07T08:47:51.716Z,38.23
2019-04-07T08:50:22.654Z,38.33
2019-04-07T08:52:52.232Z,38.42
2019-04-07T08:55:21.854Z,37.30
2019-04-07T08:57:51.765Z,38.70
2019-04-07T09:00:22.794Z,37.15
2019-04-07T09:03:01.643Z,38.85
2019-04-07T09:05:27.706Z,36.90
2019-04-07T09:07:55.146Z,38.75
2019-04-07T09:12:56.814Z,36.53
2019-04-07T09:15:28.245Z,36.15
2019-04-07T09:17:59.368Z,35.80
2019-04-07T09:20:36.157Z,33.98
2019-04-07T09:23:13.469Z,35.10
2019-04-07T09:25:47.305Z,34.25
2019-04-07T09:28:31.499Z,33.28
2019-04-07T09:31:03.593Z,30.70
2019-04-07T09:33:46.249Z,32.60
2019-04-07T09:36:31.592Z,31.87
2019-04-07T09:39:07.864Z,32.48
2019-04-07T09:41:45.078Z,28.85
2019-04-07T09:44:22.104Z,27.32
2019-04-07T09:46:55.767Z,26.97
2019-04-07T09:49:46.758Z,29.00
2019-04-07T09:52:20.873Z,29.82
2019-04-07T09:55:01.055Z,29.25
2019-04-07T09:57:50.701Z,28.02
2019-04-07T10:00:39.895Z,29.45
2019-04-07T10:03:27.004Z,26.75
2019-04-07T10:06:09.834Z,26.50
2019-04-07T10:08:43.171Z,26.82
2019-04-07T10:11:19.836Z,26.25
2019-04-07T10:13:53.617Z,25.88
2019-04-07T10:16:27.232Z,25.35
2019-04-07T10:19:06.673Z,26.57
2019-04-07T10:21:53.612Z,25.17
2019-04-07T10:24:27.241Z,23.92
2019-04-07T10:27:10.789Z,22.90
2019-04-07T10:29:44.954Z,22.93
2019-04-07T10:32:18.933Z,22.48
2019-04-07T10:35:05.926Z,21.73
2019-04-07T10:37:45.710Z,21.52
2019-04-07T10:40:24.427Z,20.30
2019-04-07T10:42:58.435Z,19.67
2019-04-07T10:45:29.645Z,20.25
2019-04-07T10:48:06.909Z,19.98
2019-04-07T10:50:53.527Z,18.98
2019-04-07T10:53:31.304Z,19.10
2019-04-07T10:56:08.886Z,17.55
2019-04-07T10:58:42.513Z,17.92
2019-04-07T11:01:28.989Z,17.67
2019-04-07T11:04:02.694Z,17.15
2019-04-07T11:06:50.166Z,16.77
2019-04-07T11:09:23.751Z,17.30
2019-04-07T11:11:54.816Z,17.85
2019-04-07T11:14:42.001Z,20.32
2019-04-07T11:17:12.846Z,17.35
2019-04-07T11:19:44.479Z,17.52
2019-04-07T11:22:31.771Z,19.17
2019-04-07T11:25:18.899Z,18.07
2019-04-07T11:28:05.962Z,19.95
2019-04-07T11:30:37.499Z,18.10
2019-04-07T11:33:11.749Z,16.85
2019-04-07T11:35:45.587Z,15.20
2019-04-07T11:38:34.312Z,14.40
2019-04-07T11:41:24.132Z,14.63
2019-04-07T11:43:56.454Z,12.53
2019-04-07T11:46:35.904Z,10.78
2019-04-07T11:49:19.506Z,11.45
2019-04-07T11:52:02.223Z,11.10
2019-04-07T11:54:38.909Z,11.57
2019-04-07T11:57:09.878Z,11.53
2019-04-07T11:59:46.551Z,11.73
2019-04-07T12:02:19.837Z,13.18
2019-04-07T12:04:55.888Z,12.60
2019-04-07T12:07:30.485Z,12.07
2019-04-07T12:10:17.891Z,11.75
2019-04-07T12:13:07.183Z,11.88
2019-04-07T12:15:56.080Z,13.90
2019-04-07T12:18:42.535Z,13.55
2019-04-07T12:21:29.811Z,14.25
2019-04-07T12:24:01.544Z,12.73
2019-04-07T12:26:47.354Z,13.22
2019-04-07T12:29:18.861Z,12.65
2019-04-07T12:31:59.660Z,11.75
2019-04-07T12:34:30.750Z,11.65
2019-04-07T12:37:19.201Z,11.65
2019-04-07T12:39:53.406Z,11.75
2019-04-07T12:42:24.307Z,11.85
2019-04-07T12:44:55.564Z,11.60
2019-04-07T12:47:43.044Z,12.13
2019-04-07T12:50:30.523Z,11.05
2019-04-07T12:53:02.779Z,11.15
2019-04-07T12:55:40.508Z,10.40
2019-04-07T12:58:19.931Z,11.28
2019-04-07T13:01:09.316Z,11.67
2019-04-07T13:03:41.154Z,11.48
2019-04-07T13:06:20.576Z,12.18
2019-04-07T13:09:00.740Z,11.80
2019-04-07T13:14:29.051Z,10.70
2019-04-07T13:17:01.661Z,11.85
2019-04-07T13:19:35.329Z,11.88
2019-04-07T13:22:06.745Z,11.75
2019-04-07T13:24:56.979Z,11.35
2019-04-07T13:27:26.502Z,12.10
2019-04-07T13:30:09.547Z,12.13
2019-04-07T13:32:59.239Z,11.88
2019-04-07T13:35:44.232Z,11.45
2019-04-07T13:38:18.077Z,11.95
2019-04-07T13:40:48.953Z,11.90
2019-04-07T13:43:31.334Z,11.18
2019-04-07T13:46:01.316Z,10.95
2019-04-07T13:48:32.336Z,10.70
2019-04-07T13:51:19.537Z,11.57
2019-04-07T13:53:59.553Z,11.25
2019-04-07T13:56:49.879Z,11.38
2019-04-07T13:59:19.332Z,10.45
2019-04-07T14:01:59.165Z,11.33
2019-04-07T14:04:36.102Z,9.85
2019-04-07T14:07:10.049Z,10.10
2019-04-07T14:09:41.672Z,9.58
2019-04-07T14:12:24.891Z,10.53
2019-04-07T14:15:05.215Z,10.30
2019-04-07T14:17:48.117Z,10.32
2019-04-07T14:20:19.335Z,10.55
2019-04-07T14:22:55.670Z,11.00
2019-04-07T14:25:47.061Z,10.45
2019-04-07T14:28:17.744Z,10.15
2019-04-07T14:31:05.456Z,10.70
2019-04-07T14:33:51.413Z,10.30
2019-04-07T14:36:31.513Z,10.88
2019-04-07T14:41:38.770Z,10.63
2019-04-07T14:44:15.188Z,11.08
2019-04-07T14:46:49.030Z,11.38
2019-04-07T14:49:22.796Z,11.88
2019-04-07T14:51:59.862Z,10.88
2019-04-07T14:54:46.449Z,10.68
2019-04-07T14:57:29.431Z,11.00
2019-04-07T15:00:03.470Z,11.28
2019-04-07T15:02:33.452Z,11.68
2019-04-07T15:05:06.073Z,11.40
2019-04-07T15:07:48.795Z,10.70
2019-04-07T15:10:26.429Z,11.22
2019-04-07T15:13:03.243Z,11.70
2019-04-07T15:15:32.549Z,11.03
2019-04-07T15:18:01.940Z,11.38
2019-04-07T15:20:31.231Z,10.60
2019-04-07T15:23:01.606Z,11.78
2019-04-07T15:25:31.435Z,10.85
2019-04-07T15:28:01.299Z,11.27
2019-04-07T15:30:31.115Z,10.32
2019-04-07T15:33:02.393Z,10.80
2019-04-07T15:35:31.752Z,11.25
2019-04-07T15:38:01.266Z,10.78
2019-04-07T15:40:34.042Z,11.38
2019-04-07T15:43:04.378Z,11.10
2019-04-07T15:45:33.353Z,11.55
2019-04-07T15:48:02.929Z,12.03
2019-04-07T15:50:35.469Z,12.18
2019-04-07T15:53:09.324Z,11.80
2019-04-07T15:55:47.838Z,11.75
2019-04-07T15:58:11.352Z,11.63
2019-04-07T16:00:52.660Z,11.83
2019-04-07T16:03:22.351Z,12.00
2019-04-07T16:05:56.229Z,11.45
2019-04-07T16:08:28.790Z,11.43
2019-04-07T16:10:56.562Z,11.03
2019-04-07T16:13:26.654Z,11.67
2019-04-07T16:18:28.447Z,11.85
2019-04-07T16:20:58.084Z,12.07
2019-04-07T16:23:36.440Z,12.23
2019-04-07T16:26:06.559Z,12.63
2019-04-07T16:28:38.899Z,11.78
2019-04-07T16:31:08.543Z,12.07
2019-04-07T16:33:43.978Z,12.33
2019-04-07T16:36:13.237Z,12.23
2019-04-07T16:38:43.188Z,11.03
2019-04-07T16:41:14.134Z,11.85
2019-04-07T16:43:43.515Z,11.75
2019-04-07T16:46:16.986Z,12.07
2019-04-07T16:48:43.760Z,12.13
2019-04-07T16:51:13.464Z,12.00
2019-04-07T16:53:43.380Z,11.40
2019-04-07T16:56:13.621Z,12.28
2019-04-07T16:58:43.670Z,12.80
2019-04-07T17:01:18.508Z,11.90
2019-04-07T17:03:48.662Z,13.22
2019-04-07T17:06:20.773Z,12.95
2019-04-07T17:08:51.511Z,12.75
2019-04-07T17:11:21.003Z,12.85
2019-04-07T17:13:50.302Z,12.75
2019-04-07T17:16:22.908Z,13.03
2019-04-07T17:18:51.084Z,13.40
2019-04-07T17:21:20.503Z,13.72
2019-04-07T17:23:53.317Z,12.00
2019-04-07T17:26:23.552Z,12.05
2019-04-07T17:28:52.655Z,13.13
2019-04-07T17:31:22.144Z,14.03
2019-04-07T17:33:52.115Z,15.08
2019-04-07T17:36:22.795Z,15.60
2019-04-07T17:38:54.033Z,14.98
2019-04-07T17:41:23.497Z,16.17
2019-04-07T17:44:00.982Z,15.53
2019-04-07T17:46:47.708Z,15.75
2019-04-07T17:49:23.352Z,15.70
2019-04-07T17:51:57.442Z,15.05
2019-04-07T17:54:31.162Z,14.87
2019-04-07T17:57:08.762Z,15.65
2019-04-07T17:59:49.317Z,14.13
2019-04-07T18:04:53.426Z,14.68
2019-04-07T18:07:30.032Z,14.60
2019-04-07T18:10:04.759Z,14.98
2019-04-07T18:12:45.390Z,14.50
2019-04-07T18:15:14.829Z,13.45
2019-04-07T18:17:56.272Z,13.68
2019-04-07T18:20:32.739Z,14.45
2019-04-07T18:23:32.638Z,13.83
2019-04-07T18:26:21.778Z,14.33
2019-04-07T18:29:01.842Z,13.43
2019-04-07T18:31:36.216Z,13.55
2019-04-07T18:34:25.156Z,13.88
2019-04-07T18:36:54.267Z,13.88
2019-04-07T18:39:27.832Z,13.55
2019-04-07T18:42:03.499Z,14.47
2019-04-07T18:44:38.634Z,15.50
2019-04-07T18:47:06.887Z,15.13
2019-04-07T18:49:40.923Z,14.25
2019-04-07T18:52:16.067Z,14.95
2019-04-07T18:54:47.611Z,15.88
2019-04-07T18:57:34.832Z,16.15
2019-04-07T19:00:23.410Z,15.63
2019-04-07T19:03:03.265Z,15.98
2019-04-07T19:05:52.069Z,16.45
2019-04-07T19:08:28.817Z,17.37
2019-04-07T19:11:10.665Z,16.80
2019-04-07T19:13:32.526Z,17.00
2019-04-07T19:16:19.548Z,17.10
2019-04-07T19:19:04.877Z,16.70
2019-04-07T19:21:47.010Z,17.20
2019-04-07T19:24:23.899Z,17.00
2019-04-07T19:26:56.175Z,17.35
2019-04-07T19:29:46.151Z,18.23
2019-04-07T19:32:17.983Z,17.60
2019-04-07T19:34:52.998Z,16.50
2019-04-07T19:37:32.714Z,18.07
2019-04-07T19:40:19.776Z,18.23
2019-04-07T19:42:59.681Z,17.92
2019-04-07T19:45:33.304Z,18.32
2019-04-07T19:48:08.378Z,18.90
2019-04-07T19:50:42.766Z,17.95
2019-04-07T19:53:32.653Z,18.67
2019-04-07T19:56:04.478Z,17.75
2019-04-07T19:58:38.631Z,19.17
2019-04-07T20:01:17.258Z,19.23
2019-04-07T20:03:49.546Z,19.15
2019-04-07T20:06:36.653Z,18.67
2019-04-07T20:09:15.465Z,19.45
2019-04-07T20:12:02.894Z,19.55
2019-04-07T20:14:47.372Z,19.20
2019-04-07T20:17:18.930Z,18.62
2019-04-07T20:19:59.850Z,18.87
2019-04-07T20:22:30.777Z,18.87
2019-04-07T20:25:20.418Z,19.50
2019-04-07T20:28:09.777Z,18.17
2019-04-07T20:30:56.684Z,18.42
2019-04-07T20:33:32.951Z,19.02
2019-04-07T20:36:23.750Z,18.40
2019-04-07T20:41:38.640Z,18.90
2019-04-07T20:44:25.842Z,18.70
2019-04-07T20:47:12.202Z,17.90
2019-04-07T20:50:00.087Z,20.95
2019-04-07T20:52:31.980Z,19.23
2019-04-07T20:55:15.581Z,20.37
2019-04-07T20:57:51.351Z,20.55
2019-04-07T21:00:38.270Z,20.35
2019-04-07T21:03:19.614Z,21.15
2019-04-07T21:05:42.676Z,22.05
2019-04-07T21:08:16.571Z,20.12
2019-04-07T21:11:07.501Z,19.98
2019-04-07T21:13:39.568Z,19.65
2019-04-07T21:16:16.636Z,19.75
2019-04-07T21:18:47.596Z,20.02
2019-04-07T21:21:37.472Z,20.60
2019-04-07T21:24:23.807Z,19.12
2019-04-07T21:27:03.878Z,19.27
2019-04-07T21:29:34.716Z,20.17
2019-04-07T21:32:09.861Z,19.57
2019-04-07T21:34:40.836Z,19.62
2019-04-07T21:37:20.316Z,20.10
2019-04-07T21:39:53.797Z,20.20
2019-04-07T21:42:30.774Z,19.45
2019-04-07T21:45:29.152Z,20.57
2019-04-07T21:48:09.580Z,19.52
2019-04-07T21:50:56.357Z,20.82
2019-04-07T21:53:45.467Z,19.45
2019-04-07T21:56:16.406Z,20.17
2019-04-07T21:58:52.003Z,20.20
2019-04-07T22:01:39.016Z,19.27
2019-04-07T22:04:10.702Z,20.20
2019-04-07T22:06:47.671Z,20.30
2019-04-07T22:09:21.269Z,18.73
2019-04-07T22:11:51.440Z,19.67
2019-04-07T22:14:20.919Z,18.57
2019-04-07T22:16:51.178Z,18.60
2019-04-07T22:19:20.502Z,18.52
2019-04-07T22:21:53.228Z,19.23
2019-04-07T22:24:20.787Z,19.42
2019-04-07T22:26:50.548Z,19.90
2019-04-07T22:29:20.691Z,19.48
2019-04-07T22:31:51.612Z,19.07
2019-04-07T22:34:20.914Z,19.95
2019-04-07T22:36:50.170Z,19.67
2019-04-07T22:39:19.410Z,19.32
2019-04-07T22:41:48.814Z,19.40
2019-04-07T22:44:20.354Z,19.25
2019-04-07T22:46:51.268Z,19.55
2019-04-07T22:49:20.063Z,19.55
2019-04-07T22:51:50.548Z,20.10
2019-04-07T22:54:20.027Z,19.32
2019-04-07T22:56:49.291Z,18.10
2019-04-07T22:59:18.522Z,18.65
2019-04-07T23:01:47.738Z,17.67
2019-04-07T23:04:16.957Z,17.50
2019-04-07T23:06:46.184Z,18.35
2019-04-07T23:09:15.571Z,18.73
2019-04-07T23:11:44.839Z,18.25
2019-04-07T23:14:14.043Z,18.57
2019-04-07T23:16:44.174Z,17.90
2019-04-07T23:19:14.331Z,18.27
2019-04-07T23:21:43.586Z,18.98
2019-04-07T23:24:12.975Z,18.52
2019-04-07T23:26:42.576Z,18.67
2019-04-07T23:29:12.153Z,17.93
2019-04-07T23:31:41.555Z,18.77
2019-04-07T23:34:10.793Z,17.67
2019-04-07T23:36:40.011Z,18.95
2019-04-07T23:39:09.934Z,17.87
2019-04-07T23:41:39.458Z,18.90
2019-04-07T23:44:09.419Z,19.23
2019-04-07T23:46:39.335Z,17.60
2019-04-07T23:49:08.681Z,17.62
2019-04-07T23:51:37.922Z,19.12
2019-04-07T23:54:14.333Z,18.98
2019-04-07T23:56:43.876Z,17.67
2019-04-07T23:59:13.170Z,18.52
